Saint-Stanislas, Canada
Current Conditions -  °F | °C
As of 8:00 AM on Saturday 20 Dec 2014 (Local Time) from CYRJ Reporting Station
Clear Clear  
Wind Chill: -19°   Ceiling: Unl
Heat Index: -19°   Visibility: 40mi
Dew Point: -22°   Wind: 3mph
Humidity: 78%   Direction: 240°WSW
Pressure: 30.33"   Gusts: NA
Location:  49°N, 72.17°W
Report Text: CYRJ 201300Z 24003KT 40SM SKC M19/M22 A3033 RMK SLP289
Loading
Personal Weather Stations






























Interactive Weather Map New forecast layout! Learn more

10-Day Weather Forecast

Advertisements
Track Severe Weather on mobile